sensor_id;sensor_type;location;lat;lon;timestamp;P1;durP1;ratioP1;P2;durP2;ratioP2
47053;SDS011;32811;52.382;5.270;2024-02-04T00:01:27;8.27;;;1.90;;
47053;SDS011;32811;52.382;5.270;2024-02-04T00:03:54;5.63;;;1.27;;
47053;SDS011;32811;52.382;5.270;2024-02-04T00:06:21;6.25;;;1.42;;
47053;SDS011;32811;52.382;5.270;2024-02-04T00:08:47;3.20;;;1.45;;
47053;SDS011;32811;52.382;5.270;2024-02-04T00:11:14;8.38;;;1.75;;
47053;SDS011;32811;52.382;5.270;2024-02-04T00:13:41;3.50;;;1.20;;
47053;SDS011;32811;52.382;5.270;2024-02-04T00:16:08;4.35;;;1.50;;
47053;SDS011;32811;52.382;5.270;2024-02-04T00:18:35;4.15;;;1.27;;
47053;SDS011;32811;52.382;5.270;2024-02-04T00:21:02;2.28;;;1.15;;
47053;SDS011;32811;52.382;5.270;2024-02-04T00:23:28;3.00;;;1.25;;
47053;SDS011;32811;52.382;5.270;2024-02-04T00:25:55;2.30;;;1.10;;
47053;SDS011;32811;52.382;5.270;2024-02-04T00:28:22;4.25;;;1.05;;
47053;SDS011;32811;52.382;5.270;2024-02-04T00:30:49;1.85;;;0.90;;
47053;SDS011;32811;52.382;5.270;2024-02-04T00:33:19;2.55;;;1.48;;
47053;SDS011;32811;52.382;5.270;2024-02-04T00:35:46;3.53;;;0.93;;
47053;SDS011;32811;52.382;5.270;2024-02-04T00:38:12;5.80;;;1.23;;
47053;SDS011;32811;52.382;5.270;2024-02-04T00:40:39;2.33;;;1.58;;
47053;SDS011;32811;52.382;5.270;2024-02-04T00:43:06;5.82;;;1.88;;
47053;SDS011;32811;52.382;5.270;2024-02-04T00:45:33;5.30;;;2.00;;
47053;SDS011;32811;52.382;5.270;2024-02-04T00:47:59;3.22;;;1.67;;
47053;SDS011;32811;52.382;5.270;2024-02-04T00:50:26;3.75;;;1.90;;
47053;SDS011;32811;52.382;5.270;2024-02-04T00:52:53;5.30;;;1.90;;
47053;SDS011;32811;52.382;5.270;2024-02-04T00:55:19;8.05;;;2.45;;
47053;SDS011;32811;52.382;5.270;2024-02-04T00:57:46;5.50;;;2.67;;
47053;SDS011;32811;52.382;5.270;2024-02-04T01:00:13;4.03;;;2.67;;
47053;SDS011;32811;52.382;5.270;2024-02-04T01:02:40;8.45;;;2.88;;
47053;SDS011;32811;52.382;5.270;2024-02-04T01:05:07;7.30;;;3.63;;
47053;SDS011;32811;52.382;5.270;2024-02-04T01:07:34;5.18;;;2.85;;
47053;SDS011;32811;52.382;5.270;2024-02-04T01:10:01;6.65;;;2.30;;
47053;SDS011;32811;52.382;5.270;2024-02-04T01:12:32;6.30;;;2.70;;
47053;SDS011;32811;52.382;5.270;2024-02-04T01:15:00;10.10;;;3.10;;
47053;SDS011;32811;52.382;5.270;2024-02-04T01:17:27;8.18;;;2.63;;
47053;SDS011;32811;52.382;5.270;2024-02-04T01:19:54;9.18;;;2.88;;
47053;SDS011;32811;52.382;5.270;2024-02-04T01:22:21;7.93;;;3.38;;
47053;SDS011;32811;52.382;5.270;2024-02-04T01:24:52;10.77;;;3.65;;
47053;SDS011;32811;52.382;5.270;2024-02-04T01:27:19;10.98;;;4.20;;
47053;SDS011;32811;52.382;5.270;2024-02-04T01:29:46;8.65;;;3.35;;
47053;SDS011;32811;52.382;5.270;2024-02-04T01:32:12;8.68;;;3.17;;
47053;SDS011;32811;52.382;5.270;2024-02-04T01:34:39;12.70;;;2.78;;
47053;SDS011;32811;52.382;5.270;2024-02-04T01:37:05;8.93;;;3.03;;
47053;SDS011;32811;52.382;5.270;2024-02-04T01:39:32;9.85;;;2.83;;
47053;SDS011;32811;52.382;5.270;2024-02-04T01:41:59;9.50;;;2.70;;
47053;SDS011;32811;52.382;5.270;2024-02-04T01:44:27;8.02;;;2.67;;
47053;SDS011;32811;52.382;5.270;2024-02-04T01:46:57;6.28;;;2.60;;
47053;SDS011;32811;52.382;5.270;2024-02-04T01:49:24;6.82;;;1.98;;
47053;SDS011;32811;52.382;5.270;2024-02-04T01:51:52;6.10;;;2.28;;
47053;SDS011;32811;52.382;5.270;2024-02-04T01:54:20;7.50;;;2.92;;
47053;SDS011;32811;52.382;5.270;2024-02-04T01:56:50;6.47;;;2.90;;
47053;SDS011;32811;52.382;5.270;2024-02-04T01:59:21;9.77;;;3.78;;
47053;SDS011;32811;52.382;5.270;2024-02-04T02:01:54;7.30;;;2.17;;
47053;SDS011;32811;52.382;5.270;2024-02-04T02:04:21;8.32;;;2.30;;
47053;SDS011;32811;52.382;5.270;2024-02-04T02:06:48;10.25;;;2.38;;
47053;SDS011;32811;52.382;5.270;2024-02-04T02:09:15;12.15;;;2.70;;
47053;SDS011;32811;52.382;5.270;2024-02-04T02:11:43;15.38;;;2.95;;
47053;SDS011;32811;52.382;5.270;2024-02-04T02:14:13;8.40;;;2.25;;
47053;SDS011;32811;52.382;5.270;2024-02-04T02:20:13;4.53;;;1.75;;
47053;SDS011;32811;52.382;5.270;2024-02-04T02:22:57;10.82;;;2.90;;
47053;SDS011;32811;52.382;5.270;2024-02-04T02:25:29;7.10;;;1.92;;
47053;SDS011;32811;52.382;5.270;2024-02-04T02:27:57;8.40;;;2.85;;
47053;SDS011;32811;52.382;5.270;2024-02-04T02:30:24;5.70;;;2.33;;
47053;SDS011;32811;52.382;5.270;2024-02-04T02:32:51;10.93;;;1.88;;
47053;SDS011;32811;52.382;5.270;2024-02-04T02:35:18;7.18;;;2.97;;
47053;SDS011;32811;52.382;5.270;2024-02-04T02:37:48;11.75;;;2.78;;
47053;SDS011;32811;52.382;5.270;2024-02-04T02:43:17;8.80;;;2.88;;
47053;SDS011;32811;52.382;5.270;2024-02-04T02:45:45;22.55;;;2.65;;
47053;SDS011;32811;52.382;5.270;2024-02-04T02:48:12;10.02;;;2.55;;
47053;SDS011;32811;52.382;5.270;2024-02-04T02:50:40;11.98;;;2.17;;
47053;SDS011;32811;52.382;5.270;2024-02-04T02:53:07;8.50;;;1.30;;
47053;SDS011;32811;52.382;5.270;2024-02-04T02:55:33;6.80;;;0.95;;
47053;SDS011;32811;52.382;5.270;2024-02-04T02:58:00;5.97;;;0.93;;
47053;SDS011;32811;52.382;5.270;2024-02-04T03:00:27;9.18;;;2.95;;
47053;SDS011;32811;52.382;5.270;2024-02-04T03:02:53;4.82;;;1.30;;
47053;SDS011;32811;52.382;5.270;2024-02-04T03:05:20;6.53;;;1.00;;
47053;SDS011;32811;52.382;5.270;2024-02-04T03:07:47;7.53;;;1.33;;
47053;SDS011;32811;52.382;5.270;2024-02-04T03:10:13;10.60;;;1.42;;
47053;SDS011;32811;52.382;5.270;2024-02-04T03:12:40;6.10;;;1.40;;
47053;SDS011;32811;52.382;5.270;2024-02-04T03:15:07;8.00;;;0.90;;
47053;SDS011;32811;52.382;5.270;2024-02-04T03:17:34;8.20;;;1.30;;
47053;SDS011;32811;52.382;5.270;2024-02-04T03:20:01;7.50;;;1.10;;
47053;SDS011;32811;52.382;5.270;2024-02-04T03:22:28;5.18;;;0.90;;
47053;SDS011;32811;52.382;5.270;2024-02-04T03:24:54;5.15;;;0.77;;
47053;SDS011;32811;52.382;5.270;2024-02-04T03:27:21;7.20;;;1.40;;
47053;SDS011;32811;52.382;5.270;2024-02-04T03:29:48;5.03;;;1.77;;
47053;SDS011;32811;52.382;5.270;2024-02-04T03:32:14;8.23;;;2.22;;
47053;SDS011;32811;52.382;5.270;2024-02-04T03:34:41;5.38;;;0.93;;
47053;SDS011;32811;52.382;5.270;2024-02-04T03:37:10;7.75;;;1.50;;
47053;SDS011;32811;52.382;5.270;2024-02-04T03:39:40;5.72;;;0.93;;
47053;SDS011;32811;52.382;5.270;2024-02-04T03:42:07;9.20;;;1.63;;
47053;SDS011;32811;52.382;5.270;2024-02-04T03:44:33;7.57;;;0.80;;
47053;SDS011;32811;52.382;5.270;2024-02-04T03:47:00;4.07;;;0.68;;
47053;SDS011;32811;52.382;5.270;2024-02-04T03:49:29;15.30;;;2.53;;
47053;SDS011;32811;52.382;5.270;2024-02-04T03:51:56;7.50;;;1.02;;
47053;SDS011;32811;52.382;5.270;2024-02-04T03:54:23;6.05;;;1.05;;
47053;SDS011;32811;52.382;5.270;2024-02-04T03:56:49;6.63;;;1.08;;
47053;SDS011;32811;52.382;5.270;2024-02-04T03:59:16;8.20;;;1.08;;
47053;SDS011;32811;52.382;5.270;2024-02-04T04:01:52;8.75;;;1.85;;
47053;SDS011;32811;52.382;5.270;2024-02-04T04:04:21;8.68;;;0.82;;
47053;SDS011;32811;52.382;5.270;2024-02-04T04:06:48;9.93;;;1.85;;
47053;SDS011;32811;52.382;5.270;2024-02-04T04:09:15;11.60;;;1.92;;
47053;SDS011;32811;52.382;5.270;2024-02-04T04:11:41;5.47;;;1.90;;
47053;SDS011;32811;52.382;5.270;2024-02-04T04:14:08;5.30;;;0.98;;
47053;SDS011;32811;52.382;5.270;2024-02-04T04:16:35;9.63;;;1.13;;
47053;SDS011;32811;52.382;5.270;2024-02-04T04:19:01;7.07;;;0.90;;
47053;SDS011;32811;52.382;5.270;2024-02-04T04:21:28;7.80;;;1.00;;
47053;SDS011;32811;52.382;5.270;2024-02-04T04:23:55;5.75;;;0.85;;
47053;SDS011;32811;52.382;5.270;2024-02-04T04:26:22;7.82;;;1.40;;
47053;SDS011;32811;52.382;5.270;2024-02-04T04:28:48;5.10;;;1.92;;
47053;SDS011;32811;52.382;5.270;2024-02-04T04:31:15;5.82;;;1.60;;
47053;SDS011;32811;52.382;5.270;2024-02-04T04:33:42;3.00;;;0.60;;
47053;SDS011;32811;52.382;5.270;2024-02-04T04:36:08;5.88;;;1.48;;
47053;SDS011;32811;52.382;5.270;2024-02-04T04:38:35;9.38;;;1.83;;
47053;SDS011;32811;52.382;5.270;2024-02-04T04:41:02;7.53;;;1.27;;
47053;SDS011;32811;52.382;5.270;2024-02-04T04:43:28;7.47;;;0.93;;
47053;SDS011;32811;52.382;5.270;2024-02-04T04:45:55;2.80;;;0.50;;
47053;SDS011;32811;52.382;5.270;2024-02-04T04:48:22;7.57;;;0.93;;
47053;SDS011;32811;52.382;5.270;2024-02-04T04:50:49;8.93;;;0.93;;
47053;SDS011;32811;52.382;5.270;2024-02-04T04:53:15;9.70;;;1.13;;
47053;SDS011;32811;52.382;5.270;2024-02-04T04:55:42;8.82;;;1.00;;
47053;SDS011;32811;52.382;5.270;2024-02-04T04:58:09;6.15;;;1.00;;
47053;SDS011;32811;52.382;5.270;2024-02-04T05:00:35;5.90;;;1.10;;
47053;SDS011;32811;52.382;5.270;2024-02-04T05:03:02;14.10;;;3.30;;
47053;SDS011;32811;52.382;5.270;2024-02-04T05:05:29;10.45;;;2.50;;
47053;SDS011;32811;52.382;5.270;2024-02-04T05:07:56;7.78;;;1.25;;
47053;SDS011;32811;52.382;5.270;2024-02-04T05:10:22;11.10;;;2.03;;
47053;SDS011;32811;52.382;5.270;2024-02-04T05:12:49;8.25;;;2.05;;
47053;SDS011;32811;52.382;5.270;2024-02-04T05:15:16;11.60;;;1.35;;
47053;SDS011;32811;52.382;5.270;2024-02-04T05:17:43;9.52;;;1.55;;
47053;SDS011;32811;52.382;5.270;2024-02-04T05:20:09;10.57;;;1.50;;
47053;SDS011;32811;52.382;5.270;2024-02-04T05:22:36;11.20;;;1.77;;
47053;SDS011;32811;52.382;5.270;2024-02-04T05:25:03;8.18;;;0.98;;
47053;SDS011;32811;52.382;5.270;2024-02-04T05:27:31;7.93;;;1.13;;
47053;SDS011;32811;52.382;5.270;2024-02-04T05:29:58;10.60;;;1.70;;
47053;SDS011;32811;52.382;5.270;2024-02-04T05:32:25;6.63;;;1.60;;
47053;SDS011;32811;52.382;5.270;2024-02-04T05:34:51;9.95;;;1.15;;
47053;SDS011;32811;52.382;5.270;2024-02-04T05:37:18;7.22;;;1.23;;
47053;SDS011;32811;52.382;5.270;2024-02-04T05:39:45;8.77;;;2.00;;
47053;SDS011;32811;52.382;5.270;2024-02-04T05:42:12;11.13;;;1.73;;
47053;SDS011;32811;52.382;5.270;2024-02-04T05:44:39;6.25;;;2.05;;
47053;SDS011;32811;52.382;5.270;2024-02-04T05:47:05;8.05;;;1.58;;
47053;SDS011;32811;52.382;5.270;2024-02-04T05:49:32;8.73;;;1.13;;
47053;SDS011;32811;52.382;5.270;2024-02-04T05:51:59;8.60;;;1.20;;
47053;SDS011;32811;52.382;5.270;2024-02-04T05:54:25;12.98;;;2.90;;
47053;SDS011;32811;52.382;5.270;2024-02-04T05:56:52;6.80;;;1.75;;
47053;SDS011;32811;52.382;5.270;2024-02-04T05:59:18;11.75;;;3.03;;
47053;SDS011;32811;52.382;5.270;2024-02-04T06:01:45;8.07;;;1.02;;
47053;SDS011;32811;52.382;5.270;2024-02-04T06:04:12;14.10;;;1.23;;
47053;SDS011;32811;52.382;5.270;2024-02-04T06:06:39;6.82;;;1.00;;
47053;SDS011;32811;52.382;5.270;2024-02-04T06:09:06;7.90;;;1.13;;
47053;SDS011;32811;52.382;5.270;2024-02-04T06:11:33;6.85;;;1.73;;
47053;SDS011;32811;52.382;5.270;2024-02-04T06:13:59;19.55;;;2.47;;
47053;SDS011;32811;52.382;5.270;2024-02-04T06:16:26;7.07;;;1.30;;
47053;SDS011;32811;52.382;5.270;2024-02-04T06:18:53;8.95;;;1.13;;
47053;SDS011;32811;52.382;5.270;2024-02-04T06:21:23;7.93;;;0.95;;
47053;SDS011;32811;52.382;5.270;2024-02-04T06:23:50;6.18;;;1.15;;
47053;SDS011;32811;52.382;5.270;2024-02-04T06:26:17;10.93;;;1.33;;
47053;SDS011;32811;52.382;5.270;2024-02-04T06:28:44;10.00;;;0.85;;
47053;SDS011;32811;52.382;5.270;2024-02-04T06:31:13;11.65;;;1.90;;
47053;SDS011;32811;52.382;5.270;2024-02-04T06:33:39;9.75;;;1.65;;
47053;SDS011;32811;52.382;5.270;2024-02-04T06:36:10;6.15;;;0.60;;
47053;SDS011;32811;52.382;5.270;2024-02-04T06:38:37;6.55;;;1.52;;
47053;SDS011;32811;52.382;5.270;2024-02-04T06:41:04;10.18;;;1.00;;
47053;SDS011;32811;52.382;5.270;2024-02-04T06:43:31;7.28;;;1.13;;
47053;SDS011;32811;52.382;5.270;2024-02-04T06:46:02;9.23;;;1.90;;
47053;SDS011;32811;52.382;5.270;2024-02-04T06:48:29;8.63;;;1.00;;
47053;SDS011;32811;52.382;5.270;2024-02-04T06:50:55;4.63;;;0.80;;
47053;SDS011;32811;52.382;5.270;2024-02-04T06:53:22;9.15;;;1.55;;
47053;SDS011;32811;52.382;5.270;2024-02-04T06:55:49;5.43;;;1.30;;
47053;SDS011;32811;52.382;5.270;2024-02-04T06:58:15;8.30;;;2.03;;
47053;SDS011;32811;52.382;5.270;2024-02-04T07:00:42;9.48;;;1.08;;
47053;SDS011;32811;52.382;5.270;2024-02-04T07:03:08;5.35;;;1.30;;
47053;SDS011;32811;52.382;5.270;2024-02-04T07:05:36;4.95;;;1.20;;
47053;SDS011;32811;52.382;5.270;2024-02-04T07:08:03;7.75;;;1.33;;
47053;SDS011;32811;52.382;5.270;2024-02-04T07:10:30;7.18;;;1.65;;
47053;SDS011;32811;52.382;5.270;2024-02-04T07:12:57;6.72;;;1.13;;
47053;SDS011;32811;52.382;5.270;2024-02-04T07:15:24;3.30;;;1.38;;
47053;SDS011;32811;52.382;5.270;2024-02-04T07:17:51;9.77;;;0.88;;
47053;SDS011;32811;52.382;5.270;2024-02-04T07:20:17;6.53;;;1.40;;
47053;SDS011;32811;52.382;5.270;2024-02-04T07:22:45;15.55;;;2.45;;
47053;SDS011;32811;52.382;5.270;2024-02-04T07:25:11;5.82;;;1.20;;
47053;SDS011;32811;52.382;5.270;2024-02-04T07:27:38;11.02;;;1.42;;
47053;SDS011;32811;52.382;5.270;2024-02-04T07:30:06;3.45;;;0.82;;
47053;SDS011;32811;52.382;5.270;2024-02-04T07:32:33;6.28;;;1.13;;
47053;SDS011;32811;52.382;5.270;2024-02-04T07:35:03;11.13;;;1.73;;
47053;SDS011;32811;52.382;5.270;2024-02-04T07:37:30;5.32;;;1.60;;
47053;SDS011;32811;52.382;5.270;2024-02-04T07:39:57;5.32;;;1.42;;
47053;SDS011;32811;52.382;5.270;2024-02-04T07:42:24;11.35;;;1.27;;
47053;SDS011;32811;52.382;5.270;2024-02-04T07:44:50;4.35;;;1.30;;
47053;SDS011;32811;52.382;5.270;2024-02-04T07:47:17;5.70;;;1.60;;
47053;SDS011;32811;52.382;5.270;2024-02-04T07:49:45;10.80;;;3.17;;
47053;SDS011;32811;52.382;5.270;2024-02-04T07:52:12;5.20;;;2.42;;
47053;SDS011;32811;52.382;5.270;2024-02-04T07:54:39;6.68;;;2.15;;
47053;SDS011;32811;52.382;5.270;2024-02-04T07:57:05;8.32;;;2.03;;
47053;SDS011;32811;52.382;5.270;2024-02-04T07:59:32;16.77;;;2.78;;
47053;SDS011;32811;52.382;5.270;2024-02-04T08:01:59;9.73;;;2.85;;
47053;SDS011;32811;52.382;5.270;2024-02-04T08:04:25;7.85;;;2.80;;
47053;SDS011;32811;52.382;5.270;2024-02-04T08:06:53;10.75;;;2.67;;
47053;SDS011;32811;52.382;5.270;2024-02-04T08:09:20;6.57;;;3.97;;
47053;SDS011;32811;52.382;5.270;2024-02-04T08:11:47;13.90;;;3.45;;
47053;SDS011;32811;52.382;5.270;2024-02-04T08:14:13;14.10;;;2.08;;
47053;SDS011;32811;52.382;5.270;2024-02-04T08:16:40;12.13;;;2.03;;
47053;SDS011;32811;52.382;5.270;2024-02-04T08:19:09;9.93;;;1.77;;
47053;SDS011;32811;52.382;5.270;2024-02-04T08:21:35;12.40;;;1.98;;
47053;SDS011;32811;52.382;5.270;2024-02-04T08:24:02;7.53;;;1.73;;
47053;SDS011;32811;52.382;5.270;2024-02-04T08:26:29;6.55;;;1.67;;
47053;SDS011;32811;52.382;5.270;2024-02-04T08:28:55;8.93;;;1.95;;
47053;SDS011;32811;52.382;5.270;2024-02-04T08:31:22;7.05;;;1.13;;
47053;SDS011;32811;52.382;5.270;2024-02-04T08:33:48;8.45;;;1.50;;
47053;SDS011;32811;52.382;5.270;2024-02-04T08:36:15;9.25;;;2.22;;
47053;SDS011;32811;52.382;5.270;2024-02-04T08:38:42;15.95;;;1.92;;
47053;SDS011;32811;52.382;5.270;2024-02-04T08:41:08;6.72;;;1.77;;
47053;SDS011;32811;52.382;5.270;2024-02-04T08:43:35;6.05;;;1.08;;
47053;SDS011;32811;52.382;5.270;2024-02-04T08:46:02;4.72;;;1.20;;
47053;SDS011;32811;52.382;5.270;2024-02-04T08:48:38;7.32;;;1.10;;
47053;SDS011;32811;52.382;5.270;2024-02-04T08:51:10;5.72;;;1.20;;
47053;SDS011;32811;52.382;5.270;2024-02-04T08:53:37;4.15;;;2.05;;
47053;SDS011;32811;52.382;5.270;2024-02-04T08:56:05;5.75;;;1.25;;
47053;SDS011;32811;52.382;5.270;2024-02-04T08:58:32;4.15;;;1.00;;
47053;SDS011;32811;52.382;5.270;2024-02-04T09:00:59;11.77;;;1.10;;
47053;SDS011;32811;52.382;5.270;2024-02-04T09:03:26;5.53;;;1.10;;
47053;SDS011;32811;52.382;5.270;2024-02-04T09:05:52;6.45;;;0.93;;
47053;SDS011;32811;52.382;5.270;2024-02-04T09:08:19;2.72;;;1.30;;
47053;SDS011;32811;52.382;5.270;2024-02-04T09:10:46;7.22;;;1.48;;
47053;SDS011;32811;52.382;5.270;2024-02-04T09:13:12;4.93;;;1.75;;
47053;SDS011;32811;52.382;5.270;2024-02-04T09:15:39;6.63;;;1.35;;
47053;SDS011;32811;52.382;5.270;2024-02-04T09:18:06;9.50;;;1.65;;
47053;SDS011;32811;52.382;5.270;2024-02-04T09:20:33;10.50;;;1.50;;
47053;SDS011;32811;52.382;5.270;2024-02-04T09:23:02;8.75;;;1.60;;
47053;SDS011;32811;52.382;5.270;2024-02-04T09:25:30;7.20;;;2.20;;
47053;SDS011;32811;52.382;5.270;2024-02-04T09:27:59;7.90;;;1.73;;
47053;SDS011;32811;52.382;5.270;2024-02-04T09:30:26;12.15;;;3.58;;
47053;SDS011;32811;52.382;5.270;2024-02-04T09:32:52;11.05;;;2.00;;
47053;SDS011;32811;52.382;5.270;2024-02-04T09:35:19;6.13;;;1.40;;
47053;SDS011;32811;52.382;5.270;2024-02-04T09:37:46;12.43;;;2.25;;
47053;SDS011;32811;52.382;5.270;2024-02-04T09:40:13;5.38;;;1.25;;
47053;SDS011;32811;52.382;5.270;2024-02-04T09:42:40;8.07;;;1.45;;
47053;SDS011;32811;52.382;5.270;2024-02-04T09:45:07;6.82;;;2.38;;
47053;SDS011;32811;52.382;5.270;2024-02-04T09:47:36;6.85;;;1.17;;
47053;SDS011;32811;52.382;5.270;2024-02-04T09:50:04;7.22;;;1.45;;
47053;SDS011;32811;52.382;5.270;2024-02-04T09:52:32;2.97;;;1.17;;
47053;SDS011;32811;52.382;5.270;2024-02-04T09:55:00;6.22;;;1.00;;
47053;SDS011;32811;52.382;5.270;2024-02-04T09:57:29;9.80;;;2.17;;
47053;SDS011;32811;52.382;5.270;2024-02-04T09:59:57;3.60;;;1.27;;
47053;SDS011;32811;52.382;5.270;2024-02-04T10:02:23;9.18;;;1.33;;
47053;SDS011;32811;52.382;5.270;2024-02-04T10:04:51;4.38;;;1.10;;
47053;SDS011;32811;52.382;5.270;2024-02-04T10:07:18;3.95;;;0.80;;
47053;SDS011;32811;52.382;5.270;2024-02-04T10:09:45;7.28;;;1.60;;
47053;SDS011;32811;52.382;5.270;2024-02-04T10:12:12;10.98;;;1.90;;
47053;SDS011;32811;52.382;5.270;2024-02-04T10:14:38;6.55;;;1.30;;
47053;SDS011;32811;52.382;5.270;2024-02-04T10:17:05;6.78;;;1.10;;
47053;SDS011;32811;52.382;5.270;2024-02-04T10:19:33;4.65;;;0.93;;
47053;SDS011;32811;52.382;5.270;2024-02-04T10:22:04;7.10;;;0.80;;
47053;SDS011;32811;52.382;5.270;2024-02-04T10:24:31;5.68;;;0.90;;
47053;SDS011;32811;52.382;5.270;2024-02-04T10:26:57;3.45;;;0.80;;
47053;SDS011;32811;52.382;5.270;2024-02-04T10:29:25;6.18;;;1.55;;
47053;SDS011;32811;52.382;5.270;2024-02-04T10:31:55;11.38;;;1.30;;
47053;SDS011;32811;52.382;5.270;2024-02-04T10:34:25;5.55;;;0.70;;
47053;SDS011;32811;52.382;5.270;2024-02-04T10:36:52;5.60;;;0.80;;
47053;SDS011;32811;52.382;5.270;2024-02-04T10:39:19;5.50;;;0.70;;
47053;SDS011;32811;52.382;5.270;2024-02-04T10:41:49;7.70;;;1.38;;
47053;SDS011;32811;52.382;5.270;2024-02-04T10:44:23;5.25;;;1.00;;
47053;SDS011;32811;52.382;5.270;2024-02-04T10:46:50;6.53;;;0.80;;
47053;SDS011;32811;52.382;5.270;2024-02-04T10:49:18;2.75;;;0.80;;
47053;SDS011;32811;52.382;5.270;2024-02-04T10:51:46;6.32;;;2.70;;
47053;SDS011;32811;52.382;5.270;2024-02-04T10:54:14;5.05;;;0.57;;
47053;SDS011;32811;52.382;5.270;2024-02-04T10:56:43;2.42;;;0.40;;
47053;SDS011;32811;52.382;5.270;2024-02-04T10:59:11;9.38;;;1.58;;
47053;SDS011;32811;52.382;5.270;2024-02-04T11:01:38;6.72;;;1.10;;
47053;SDS011;32811;52.382;5.270;2024-02-04T11:04:06;4.97;;;0.85;;
47053;SDS011;32811;52.382;5.270;2024-02-04T11:06:34;8.07;;;1.52;;
47053;SDS011;32811;52.382;5.270;2024-02-04T11:09:03;11.23;;;1.42;;
47053;SDS011;32811;52.382;5.270;2024-02-04T11:11:32;3.47;;;0.60;;
47053;SDS011;32811;52.382;5.270;2024-02-04T11:14:00;6.80;;;1.30;;
47053;SDS011;32811;52.382;5.270;2024-02-04T11:19:21;3.13;;;0.47;;
47053;SDS011;32811;52.382;5.270;2024-02-04T11:22:03;7.57;;;0.80;;
47053;SDS011;32811;52.382;5.270;2024-02-04T11:27:20;3.17;;;0.60;;
47053;SDS011;32811;52.382;5.270;2024-02-04T11:29:48;3.45;;;1.02;;
47053;SDS011;32811;52.382;5.270;2024-02-04T11:32:16;1.90;;;0.85;;
47053;SDS011;32811;52.382;5.270;2024-02-04T11:34:44;5.90;;;0.40;;
47053;SDS011;32811;52.382;5.270;2024-02-04T11:37:18;4.68;;;0.57;;
47053;SDS011;32811;52.382;5.270;2024-02-04T11:39:50;3.35;;;0.40;;
47053;SDS011;32811;52.382;5.270;2024-02-04T11:42:22;4.28;;;1.25;;
47053;SDS011;32811;52.382;5.270;2024-02-04T11:44:49;2.53;;;0.45;;
47053;SDS011;32811;52.382;5.270;2024-02-04T11:47:26;4.28;;;0.52;;
47053;SDS011;32811;52.382;5.270;2024-02-04T11:49:57;3.72;;;0.40;;
47053;SDS011;32811;52.382;5.270;2024-02-04T11:52:27;4.57;;;0.47;;
47053;SDS011;32811;52.382;5.270;2024-02-04T11:54:55;1.55;;;0.30;;
47053;SDS011;32811;52.382;5.270;2024-02-04T11:57:22;2.60;;;0.45;;
47053;SDS011;32811;52.382;5.270;2024-02-04T11:59:50;1.17;;;0.13;;
47053;SDS011;32811;52.382;5.270;2024-02-04T12:02:18;1.02;;;0.30;;
47053;SDS011;32811;52.382;5.270;2024-02-04T12:04:47;1.42;;;0.43;;
47053;SDS011;32811;52.382;5.270;2024-02-04T12:07:14;4.10;;;0.30;;
47053;SDS011;32811;52.382;5.270;2024-02-04T12:09:41;2.95;;;0.50;;
47053;SDS011;32811;52.382;5.270;2024-02-04T12:12:09;4.25;;;0.55;;
47053;SDS011;32811;52.382;5.270;2024-02-04T12:14:35;1.65;;;0.32;;
47053;SDS011;32811;52.382;5.270;2024-02-04T12:17:09;3.15;;;0.77;;
47053;SDS011;32811;52.382;5.270;2024-02-04T12:19:37;1.42;;;0.40;;
47053;SDS011;32811;52.382;5.270;2024-02-04T12:22:10;3.83;;;0.60;;
47053;SDS011;32811;52.382;5.270;2024-02-04T12:24:38;2.10;;;0.60;;
47053;SDS011;32811;52.382;5.270;2024-02-04T12:27:05;1.90;;;0.80;;
47053;SDS011;32811;52.382;5.270;2024-02-04T12:29:33;2.67;;;0.45;;
47053;SDS011;32811;52.382;5.270;2024-02-04T12:32:04;3.05;;;0.50;;
47053;SDS011;32811;52.382;5.270;2024-02-04T12:34:32;1.48;;;0.40;;
47053;SDS011;32811;52.382;5.270;2024-02-04T12:37:01;3.13;;;0.45;;
47053;SDS011;32811;52.382;5.270;2024-02-04T12:39:28;1.42;;;0.43;;
47053;SDS011;32811;52.382;5.270;2024-02-04T12:41:55;2.75;;;0.30;;
47053;SDS011;32811;52.382;5.270;2024-02-04T12:44:22;2.00;;;0.65;;
47053;SDS011;32811;52.382;5.270;2024-02-04T12:46:52;3.97;;;0.40;;
47053;SDS011;32811;52.382;5.270;2024-02-04T12:49:20;5.63;;;0.75;;
47053;SDS011;32811;52.382;5.270;2024-02-04T12:51:51;9.88;;;1.50;;
47053;SDS011;32811;52.382;5.270;2024-02-04T12:54:22;7.82;;;1.27;;
47053;SDS011;32811;52.382;5.270;2024-02-04T12:56:50;7.35;;;1.10;;
47053;SDS011;32811;52.382;5.270;2024-02-04T12:59:29;8.75;;;2.38;;
47053;SDS011;32811;52.382;5.270;2024-02-04T13:01:58;8.55;;;1.38;;
47053;SDS011;32811;52.382;5.270;2024-02-04T13:04:32;7.05;;;1.88;;
47053;SDS011;32811;52.382;5.270;2024-02-04T13:07:07;7.03;;;1.17;;
47053;SDS011;32811;52.382;5.270;2024-02-04T13:09:44;12.85;;;1.88;;
47053;SDS011;32811;52.382;5.270;2024-02-04T13:12:11;10.15;;;1.42;;
47053;SDS011;32811;52.382;5.270;2024-02-04T13:14:41;9.73;;;1.75;;
47053;SDS011;32811;52.382;5.270;2024-02-04T13:17:08;10.60;;;3.08;;
47053;SDS011;32811;52.382;5.270;2024-02-04T13:19:36;10.35;;;1.23;;
47053;SDS011;32811;52.382;5.270;2024-02-04T13:22:05;11.63;;;1.92;;
47053;SDS011;32811;52.382;5.270;2024-02-04T13:24:33;10.02;;;2.47;;
47053;SDS011;32811;52.382;5.270;2024-02-04T13:27:00;10.38;;;1.35;;
47053;SDS011;32811;52.382;5.270;2024-02-04T13:29:27;9.25;;;1.45;;
47053;SDS011;32811;52.382;5.270;2024-02-04T13:31:56;7.72;;;1.85;;
47053;SDS011;32811;52.382;5.270;2024-02-04T13:34:23;9.05;;;2.47;;
47053;SDS011;32811;52.382;5.270;2024-02-04T13:36:50;7.03;;;0.90;;
47053;SDS011;32811;52.382;5.270;2024-02-04T13:39:17;10.27;;;2.60;;
47053;SDS011;32811;52.382;5.270;2024-02-04T13:41:44;8.80;;;1.63;;
47053;SDS011;32811;52.382;5.270;2024-02-04T13:44:11;8.05;;;1.98;;
47053;SDS011;32811;52.382;5.270;2024-02-04T13:46:38;5.63;;;1.17;;
47053;SDS011;32811;52.382;5.270;2024-02-04T13:49:09;10.10;;;2.40;;
47053;SDS011;32811;52.382;5.270;2024-02-04T13:51:36;7.90;;;1.13;;
47053;SDS011;32811;52.382;5.270;2024-02-04T13:54:10;4.00;;;0.95;;
47053;SDS011;32811;52.382;5.270;2024-02-04T13:56:42;8.88;;;1.65;;
47053;SDS011;32811;52.382;5.270;2024-02-04T13:59:09;8.93;;;1.45;;
47053;SDS011;32811;52.382;5.270;2024-02-04T14:01:36;6.20;;;1.25;;
47053;SDS011;32811;52.382;5.270;2024-02-04T14:04:02;5.32;;;1.60;;
47053;SDS011;32811;52.382;5.270;2024-02-04T14:06:29;5.22;;;1.10;;
47053;SDS011;32811;52.382;5.270;2024-02-04T14:08:56;11.07;;;1.52;;
47053;SDS011;32811;52.382;5.270;2024-02-04T14:11:23;9.40;;;1.30;;
47053;SDS011;32811;52.382;5.270;2024-02-04T14:13:49;13.55;;;1.33;;
47053;SDS011;32811;52.382;5.270;2024-02-04T14:16:16;12.30;;;1.55;;
47053;SDS011;32811;52.382;5.270;2024-02-04T14:18:43;5.70;;;1.00;;
47053;SDS011;32811;52.382;5.270;2024-02-04T14:21:12;7.82;;;1.30;;
47053;SDS011;32811;52.382;5.270;2024-02-04T14:23:42;8.70;;;1.45;;
47053;SDS011;32811;52.382;5.270;2024-02-04T14:26:16;10.75;;;2.90;;
47053;SDS011;32811;52.382;5.270;2024-02-04T14:28:44;9.65;;;2.08;;
47053;SDS011;32811;52.382;5.270;2024-02-04T14:31:10;10.23;;;1.20;;
47053;SDS011;32811;52.382;5.270;2024-02-04T14:33:37;8.75;;;1.30;;
47053;SDS011;32811;52.382;5.270;2024-02-04T14:36:04;10.00;;;1.73;;
47053;SDS011;32811;52.382;5.270;2024-02-04T14:38:31;6.53;;;2.80;;
47053;SDS011;32811;52.382;5.270;2024-02-04T14:40:58;8.48;;;1.70;;
47053;SDS011;32811;52.382;5.270;2024-02-04T14:43:25;9.73;;;2.03;;
47053;SDS011;32811;52.382;5.270;2024-02-04T14:45:52;10.95;;;1.48;;
47053;SDS011;32811;52.382;5.270;2024-02-04T14:48:19;7.28;;;1.00;;
47053;SDS011;32811;52.382;5.270;2024-02-04T14:50:46;7.70;;;1.35;;
47053;SDS011;32811;52.382;5.270;2024-02-04T14:53:13;8.25;;;1.50;;
47053;SDS011;32811;52.382;5.270;2024-02-04T14:55:40;7.38;;;1.75;;
47053;SDS011;32811;52.382;5.270;2024-02-04T14:58:07;8.50;;;1.20;;
47053;SDS011;32811;52.382;5.270;2024-02-04T15:00:33;6.75;;;1.27;;